createdAt,value
2018-06-27T00:00:38.908Z,15.70
2018-06-27T00:01:39.001Z,15.64
2018-06-27T00:02:39.101Z,15.61
2018-06-27T00:03:39.199Z,15.61
2018-06-27T00:04:39.295Z,15.63
2018-06-27T00:05:39.390Z,15.67
2018-06-27T00:06:39.487Z,15.75
2018-06-27T00:07:39.586Z,15.68
2018-06-27T00:08:39.682Z,15.75
2018-06-27T00:09:39.781Z,15.75
2018-06-27T00:10:39.869Z,15.72
2018-06-27T00:11:39.970Z,15.72
2018-06-27T00:12:40.062Z,15.76
2018-06-27T00:13:40.159Z,15.75
2018-06-27T00:14:40.256Z,15.72
2018-06-27T00:15:40.350Z,15.76
2018-06-27T00:16:40.457Z,15.72
2018-06-27T00:17:40.555Z,15.72
2018-06-27T00:18:40.650Z,15.64
2018-06-27T00:19:40.749Z,15.72
2018-06-27T00:20:40.843Z,15.66
2018-06-27T00:21:40.943Z,15.68
2018-06-27T00:22:41.042Z,15.68
2018-06-27T00:23:41.162Z,15.66
2018-06-27T00:24:41.259Z,15.67
2018-06-27T00:25:41.356Z,15.70
2018-06-27T00:26:41.454Z,15.61
2018-06-27T00:27:41.554Z,15.59
2018-06-27T00:28:41.652Z,15.64
2018-06-27T00:29:41.755Z,15.66
2018-06-27T00:30:41.848Z,15.67
2018-06-27T00:31:41.944Z,15.66
2018-06-27T00:32:42.043Z,15.64
2018-06-27T00:33:42.139Z,15.70
2018-06-27T00:34:42.236Z,15.70
2018-06-27T00:35:42.336Z,15.49
2018-06-27T00:36:42.431Z,15.49
2018-06-27T00:37:42.532Z,15.56
2018-06-27T00:38:42.626Z,15.56
2018-06-27T00:39:42.724Z,15.57
2018-06-27T00:40:42.821Z,15.49
2018-06-27T00:41:42.919Z,15.59
2018-06-27T00:42:43.029Z,15.57
2018-06-27T00:43:43.125Z,15.48
2018-06-27T00:44:43.219Z,15.49
2018-06-27T00:45:43.319Z,15.49
2018-06-27T00:46:43.413Z,15.51
2018-06-27T00:47:43.509Z,15.49
2018-06-27T00:48:43.607Z,15.51
2018-06-27T00:49:43.704Z,15.45
2018-06-27T00:50:43.808Z,15.41
2018-06-27T00:51:43.905Z,15.45
2018-06-27T00:52:44.001Z,15.48
2018-06-27T00:53:44.097Z,15.41
2018-06-27T00:54:44.194Z,15.51
2018-06-27T00:55:44.292Z,15.48
2018-06-27T00:56:44.392Z,15.46
2018-06-27T00:57:44.486Z,15.41
2018-06-27T00:58:44.582Z,15.41
2018-06-27T00:59:44.680Z,15.42
2018-06-27T01:00:44.789Z,15.39
2018-06-27T01:01:44.875Z,15.39
2018-06-27T01:02:44.973Z,15.24
2018-06-27T01:03:45.070Z,15.21
2018-06-27T01:04:45.161Z,15.15
2018-06-27T01:05:45.254Z,14.98
2018-06-27T01:06:45.353Z,14.84
2018-06-27T01:07:45.450Z,14.72
2018-06-27T01:08:45.548Z,14.80
2018-06-27T01:09:45.645Z,14.72
2018-06-27T01:10:45.742Z,14.71
2018-06-27T01:11:45.837Z,14.71
2018-06-27T01:12:45.937Z,14.78
2018-06-27T01:13:46.032Z,14.78
2018-06-27T01:14:46.129Z,14.75
2018-06-27T01:15:46.229Z,14.80
2018-06-27T01:16:46.325Z,14.90
2018-06-27T01:17:46.420Z,14.91
2018-06-27T01:18:46.515Z,14.86
2018-06-27T01:19:46.613Z,14.90
2018-06-27T01:20:46.711Z,14.94
2018-06-27T01:21:46.808Z,14.88
2018-06-27T01:22:46.902Z,14.84
2018-06-27T01:23:46.998Z,14.98
2018-06-27T01:24:47.096Z,14.99
2018-06-27T01:25:47.189Z,14.93
2018-06-27T01:26:47.287Z,14.83
2018-06-27T01:27:47.384Z,14.95
2018-06-27T01:28:47.480Z,14.90
2018-06-27T01:29:47.582Z,14.87
2018-06-27T01:30:47.678Z,14.88
2018-06-27T01:31:47.776Z,14.99
2018-06-27T01:32:47.875Z,15.03
2018-06-27T01:33:47.973Z,15.01
2018-06-27T01:34:48.054Z,14.93
2018-06-27T01:35:48.159Z,14.88
2018-06-27T01:36:48.241Z,14.95
2018-06-27T01:37:48.440Z,15.02
2018-06-27T01:38:48.410Z,15.03
2018-06-27T01:39:48.524Z,14.99
2018-06-27T01:40:48.616Z,14.99
2018-06-27T01:41:48.703Z,14.99
2018-06-27T01:42:48.785Z,14.94
2018-06-27T01:43:48.873Z,14.88
2018-06-27T01:44:48.978Z,14.83
2018-06-27T01:45:49.065Z,14.88
2018-06-27T01:46:49.186Z,14.88
2018-06-27T01:47:49.237Z,14.86
2018-06-27T01:48:49.324Z,14.90
2018-06-27T01:49:49.528Z,14.90
2018-06-27T01:50:49.520Z,14.83
2018-06-27T01:51:49.606Z,14.74
2018-06-27T01:52:49.700Z,14.83
2018-06-27T01:53:49.789Z,14.72
2018-06-27T01:54:49.871Z,14.83
2018-06-27T01:55:49.958Z,14.86
2018-06-27T01:56:50.047Z,14.84
2018-06-27T01:57:50.176Z,14.86
2018-06-27T01:58:50.303Z,14.84
2018-06-27T01:59:50.384Z,14.81
2018-06-27T02:00:50.478Z,14.74
2018-06-27T02:01:50.591Z,14.80
2018-06-27T02:02:50.691Z,14.80
2018-06-27T02:03:50.788Z,14.74
2018-06-27T02:04:50.883Z,14.81
2018-06-27T02:05:50.984Z,14.78
2018-06-27T02:06:51.101Z,14.78
2018-06-27T02:07:51.193Z,14.80
2018-06-27T02:08:51.281Z,14.71
2018-06-27T02:09:51.399Z,14.75
2018-06-27T02:10:51.491Z,14.60
2018-06-27T02:11:51.591Z,14.69
2018-06-27T02:12:51.675Z,14.61
2018-06-27T02:13:51.763Z,14.61
2018-06-27T02:14:51.853Z,14.65
2018-06-27T02:15:51.955Z,14.56
2018-06-27T02:16:52.053Z,14.61
2018-06-27T02:17:52.144Z,14.54
2018-06-27T02:18:52.242Z,14.49
2018-06-27T02:19:52.332Z,14.56
2018-06-27T02:20:52.426Z,14.62
2018-06-27T02:21:52.518Z,14.57
2018-06-27T02:22:52.620Z,14.53
2018-06-27T02:23:52.699Z,14.57
2018-06-27T02:24:52.829Z,14.50
2018-06-27T02:25:52.901Z,14.67
2018-06-27T02:26:53.007Z,14.54
2018-06-27T02:27:53.115Z,14.57
2018-06-27T02:28:53.200Z,14.50
2018-06-27T02:29:53.317Z,14.53
2018-06-27T02:30:53.405Z,14.54
2018-06-27T02:31:53.507Z,14.50
2018-06-27T02:32:53.620Z,14.54
2018-06-27T02:33:53.721Z,14.52
2018-06-27T02:34:53.822Z,14.53
2018-06-27T02:35:53.916Z,14.49
2018-06-27T02:36:54.001Z,14.50
2018-06-27T02:37:54.112Z,14.61
2018-06-27T02:38:54.206Z,14.64
2018-06-27T02:39:54.310Z,14.56
2018-06-27T02:40:54.409Z,14.57
2018-06-27T02:41:54.501Z,14.52
2018-06-27T02:42:54.595Z,14.61
2018-06-27T02:43:54.700Z,14.57
2018-06-27T02:44:54.785Z,14.49
2018-06-27T02:45:54.880Z,14.52
2018-06-27T02:46:54.972Z,14.47
2018-06-27T02:47:55.081Z,14.43
2018-06-27T02:48:55.180Z,14.50
2018-06-27T02:49:55.428Z,14.47
2018-06-27T02:50:55.373Z,14.47
2018-06-27T02:51:55.472Z,14.47
2018-06-27T02:52:55.565Z,14.47
2018-06-27T02:53:55.653Z,14.49
2018-06-27T02:54:55.748Z,14.46
2018-06-27T02:55:55.845Z,14.47
2018-06-27T02:56:55.951Z,14.43
2018-06-27T02:57:56.058Z,14.37
2018-06-27T02:58:56.141Z,14.35
2018-06-27T02:59:56.243Z,14.32
2018-06-27T03:00:56.335Z,14.34
2018-06-27T03:01:56.422Z,14.37
2018-06-27T03:02:56.517Z,14.35
2018-06-27T03:03:56.634Z,14.39
2018-06-27T03:04:56.733Z,14.42
2018-06-27T03:05:56.831Z,14.34
2018-06-27T03:06:56.925Z,14.34
2018-06-27T03:07:57.027Z,14.35
2018-06-27T03:08:57.132Z,14.29
2018-06-27T03:09:57.219Z,14.13
2018-06-27T03:10:57.336Z,14.31
2018-06-27T03:11:57.428Z,14.32
2018-06-27T03:12:57.521Z,14.24
2018-06-27T03:13:57.617Z,14.24
2018-06-27T03:14:57.721Z,14.35
2018-06-27T03:15:57.816Z,14.34
2018-06-27T03:16:57.904Z,14.25
2018-06-27T03:17:58.010Z,14.35
2018-06-27T03:18:58.135Z,14.35
2018-06-27T03:19:58.233Z,14.29
2018-06-27T03:20:58.330Z,14.32
2018-06-27T03:21:58.415Z,14.31
2018-06-27T03:22:58.566Z,14.31
2018-06-27T03:23:58.551Z,14.29
2018-06-27T03:24:58.650Z,14.21
2018-06-27T03:25:58.758Z,14.37
2018-06-27T03:26:58.854Z,14.32
2018-06-27T03:27:58.959Z,14.29
2018-06-27T03:28:59.052Z,14.29
2018-06-27T03:29:59.142Z,14.32
2018-06-27T03:30:59.263Z,14.27
2018-06-27T03:31:59.353Z,14.24
2018-06-27T03:32:59.452Z,14.24
2018-06-27T03:33:59.547Z,14.31
2018-06-27T03:34:59.659Z,14.28
2018-06-27T03:35:59.750Z,14.20
2018-06-27T03:36:59.847Z,14.21
2018-06-27T03:37:59.984Z,14.27
2018-06-27T03:39:00.076Z,14.32
2018-06-27T03:40:00.169Z,14.25
2018-06-27T03:41:00.269Z,14.27
2018-06-27T03:42:00.368Z,14.29
2018-06-27T03:43:00.459Z,14.24
2018-06-27T03:44:00.549Z,14.35
2018-06-27T03:45:00.632Z,14.34
2018-06-27T03:46:00.736Z,14.38
2018-06-27T03:47:00.841Z,14.35
2018-06-27T03:48:00.931Z,14.39
2018-06-27T03:49:01.029Z,14.42
2018-06-27T03:50:01.145Z,14.42
2018-06-27T03:51:01.238Z,14.46
2018-06-27T03:52:01.334Z,14.46
2018-06-27T03:53:01.427Z,14.38
2018-06-27T03:54:01.521Z,14.37
2018-06-27T03:55:01.618Z,14.47
2018-06-27T03:56:01.706Z,14.47
2018-06-27T03:57:01.815Z,14.53
2018-06-27T03:58:01.912Z,14.50
2018-06-27T03:59:02.043Z,14.53
2018-06-27T04:00:02.108Z,14.56
2018-06-27T04:01:02.215Z,14.61
2018-06-27T04:02:02.308Z,14.62
2018-06-27T04:03:02.399Z,14.68
2018-06-27T04:04:02.490Z,14.74
2018-06-27T04:05:02.580Z,14.78
2018-06-27T04:06:02.662Z,14.78
2018-06-27T04:07:02.758Z,14.75
2018-06-27T04:08:02.852Z,14.81
2018-06-27T04:09:02.948Z,14.80
2018-06-27T04:10:03.051Z,14.78
2018-06-27T04:11:03.145Z,14.86
2018-06-27T04:12:03.252Z,14.86
2018-06-27T04:13:03.570Z,14.90
2018-06-27T04:14:03.423Z,14.83
2018-06-27T04:15:03.527Z,14.94
2018-06-27T04:16:03.627Z,14.86
2018-06-27T04:17:03.725Z,14.88
2018-06-27T04:18:03.824Z,14.93
2018-06-27T04:19:03.922Z,14.88
2018-06-27T04:20:04.055Z,14.83
2018-06-27T04:21:04.115Z,14.91
2018-06-27T04:22:04.209Z,14.91
2018-06-27T04:23:04.308Z,14.95
2018-06-27T04:24:04.405Z,14.94
2018-06-27T04:25:04.506Z,14.87
2018-06-27T04:26:04.605Z,14.99
2018-06-27T04:27:04.701Z,15.05
2018-06-27T04:28:04.798Z,14.93
2018-06-27T04:29:04.896Z,14.95
2018-06-27T04:30:04.991Z,15.01
2018-06-27T04:31:05.086Z,15.01
2018-06-27T04:32:05.183Z,15.05
2018-06-27T04:33:05.282Z,15.06
2018-06-27T04:34:05.402Z,15.09
2018-06-27T04:35:05.501Z,15.03
2018-06-27T04:36:05.649Z,15.06
2018-06-27T04:37:05.700Z,15.26
2018-06-27T04:38:05.801Z,15.24
2018-06-27T04:39:05.895Z,15.23
2018-06-27T04:40:05.992Z,15.27
2018-06-27T04:41:06.085Z,15.41
2018-06-27T04:42:06.186Z,15.36
2018-06-27T04:43:06.291Z,15.46
2018-06-27T04:44:06.383Z,15.45
2018-06-27T04:45:06.482Z,15.49
2018-06-27T04:46:06.579Z,15.52
2018-06-27T04:47:06.677Z,15.56
2018-06-27T04:48:06.781Z,15.66
2018-06-27T04:49:06.878Z,15.74
2018-06-27T04:50:06.974Z,15.64
2018-06-27T04:51:07.071Z,15.82
2018-06-27T04:52:07.170Z,15.82
2018-06-27T04:53:07.268Z,15.84
2018-06-27T04:54:07.367Z,15.92
2018-06-27T04:55:07.460Z,15.93
2018-06-27T04:56:07.556Z,15.86
2018-06-27T04:57:07.655Z,16.07
2018-06-27T04:58:07.753Z,16.09
2018-06-27T04:59:07.851Z,16.01
2018-06-27T05:00:07.949Z,16.18
2018-06-27T05:01:08.048Z,16.14
2018-06-27T05:02:08.146Z,16.18
2018-06-27T05:03:08.244Z,16.20
2018-06-27T05:04:08.342Z,16.18
2018-06-27T05:05:08.442Z,16.20
2018-06-27T05:06:08.541Z,16.30
2018-06-27T05:07:08.639Z,16.30
2018-06-27T05:08:08.753Z,16.31
2018-06-27T05:09:08.851Z,16.30
2018-06-27T05:10:08.948Z,16.37
2018-06-27T05:11:09.047Z,16.34
2018-06-27T05:12:09.147Z,16.42
2018-06-27T05:13:09.245Z,16.35
2018-06-27T05:14:09.344Z,16.35
2018-06-27T05:15:09.452Z,16.33
2018-06-27T05:16:09.552Z,16.25
2018-06-27T05:17:09.650Z,16.26
2018-06-27T05:18:09.750Z,16.25
2018-06-27T05:19:09.853Z,16.33
2018-06-27T05:20:09.946Z,16.31
2018-06-27T05:21:10.042Z,16.30
2018-06-27T05:22:10.142Z,16.33
2018-06-27T05:23:10.240Z,16.34
2018-06-27T05:24:10.341Z,16.50
2018-06-27T05:25:10.440Z,16.88
2018-06-27T05:26:10.545Z,17.59
2018-06-27T05:27:10.645Z,18.19
2018-06-27T05:28:10.740Z,18.84
2018-06-27T05:29:10.828Z,19.15
2018-06-27T05:30:10.942Z,19.69
2018-06-27T05:31:11.042Z,20.08
2018-06-27T05:32:11.141Z,20.61
2018-06-27T05:33:11.254Z,20.81
2018-06-27T05:34:11.353Z,21.09
2018-06-27T05:35:11.453Z,21.48
2018-06-27T05:36:11.554Z,21.72
2018-06-27T05:37:11.653Z,22.28
2018-06-27T05:38:11.756Z,22.65
2018-06-27T05:39:11.854Z,22.92
2018-06-27T05:40:11.961Z,23.23
2018-06-27T05:41:12.053Z,23.58
2018-06-27T05:42:12.164Z,23.79
2018-06-27T05:43:12.257Z,23.89
2018-06-27T05:44:12.403Z,24.27
2018-06-27T05:45:12.476Z,24.52
2018-06-27T05:46:12.581Z,24.73
2018-06-27T05:47:12.687Z,25.02
2018-06-27T05:48:12.793Z,25.44
2018-06-27T05:49:12.901Z,25.71
2018-06-27T05:50:13.028Z,26.01
2018-06-27T05:51:13.134Z,26.44
2018-06-27T05:52:13.241Z,26.61
2018-06-27T05:53:13.343Z,26.47
2018-06-27T05:54:13.449Z,26.35
2018-06-27T05:55:13.554Z,26.40
2018-06-27T05:56:13.661Z,26.44
2018-06-27T05:57:13.771Z,26.65
2018-06-27T05:58:13.883Z,26.80
2018-06-27T05:59:13.984Z,27.10
2018-06-27T06:00:14.100Z,27.26
2018-06-27T06:01:14.209Z,27.41
2018-06-27T06:02:14.335Z,27.67
2018-06-27T06:03:14.443Z,27.79
2018-06-27T06:04:14.612Z,28.01
2018-06-27T06:05:14.663Z,28.26
2018-06-27T06:06:14.771Z,28.36
2018-06-27T06:07:14.879Z,28.59
2018-06-27T06:08:14.990Z,28.51
2018-06-27T06:09:15.099Z,28.62
2018-06-27T06:10:15.209Z,28.72
2018-06-27T06:11:15.350Z,28.77
2018-06-27T06:12:15.417Z,28.78
2018-06-27T06:13:15.535Z,28.62
2018-06-27T06:14:15.646Z,28.22
2018-06-27T06:15:15.753Z,28.28
2018-06-27T06:16:15.863Z,28.09
2018-06-27T06:17:15.972Z,28.09
2018-06-27T06:18:16.081Z,27.96
2018-06-27T06:19:16.190Z,27.94
2018-06-27T06:20:16.305Z,27.84
2018-06-27T06:21:16.414Z,27.76
2018-06-27T06:22:16.524Z,27.69
2018-06-27T06:23:16.634Z,27.41
2018-06-27T06:24:16.746Z,27.32
2018-06-27T06:25:16.873Z,27.01
2018-06-27T06:26:16.956Z,26.59
2018-06-27T06:27:17.064Z,26.22
2018-06-27T06:28:17.197Z,26.01
2018-06-27T06:29:17.307Z,25.75
2018-06-27T06:30:17.419Z,25.49
2018-06-27T06:31:17.541Z,25.42
2018-06-27T06:32:17.725Z,25.25
2018-06-27T06:33:17.756Z,25.15
2018-06-27T06:34:17.857Z,25.01
2018-06-27T06:35:17.961Z,24.85
2018-06-27T06:36:18.098Z,24.53
2018-06-27T06:37:18.205Z,24.22
2018-06-27T06:38:19.231Z,24.13
2018-06-27T06:39:18.463Z,24.14
2018-06-27T06:40:18.577Z,24.08
2018-06-27T06:41:18.695Z,23.68
2018-06-27T06:42:18.797Z,23.15
2018-06-27T06:43:18.897Z,23.14
2018-06-27T06:44:19.013Z,22.80
2018-06-27T06:45:19.115Z,22.57
2018-06-27T06:46:19.231Z,22.54
2018-06-27T06:47:19.336Z,22.38
2018-06-27T06:48:19.452Z,22.37
2018-06-27T06:49:19.564Z,22.31
2018-06-27T06:50:19.667Z,21.44
2018-06-27T06:51:19.772Z,21.23
2018-06-27T06:52:19.878Z,21.23
2018-06-27T06:53:19.990Z,21.29
2018-06-27T06:54:20.104Z,21.27
2018-06-27T06:55:20.210Z,21.08
2018-06-27T06:56:20.323Z,21.16
2018-06-27T06:57:20.430Z,21.11
2018-06-27T06:58:20.535Z,21.16
2018-06-27T06:59:20.632Z,20.96
2018-06-27T07:00:20.739Z,20.79
2018-06-27T07:01:20.846Z,20.83
2018-06-27T07:02:20.985Z,21.09
2018-06-27T07:03:21.081Z,21.20
2018-06-27T07:04:21.195Z,21.30
2018-06-27T07:05:21.301Z,21.44
2018-06-27T07:06:21.395Z,21.17
2018-06-27T07:07:21.507Z,20.99
2018-06-27T07:08:21.670Z,20.91
2018-06-27T07:09:21.762Z,20.98
2018-06-27T07:10:21.879Z,21.23
2018-06-27T07:11:22.094Z,21.35
2018-06-27T07:12:22.092Z,21.30
2018-06-27T07:13:22.180Z,21.50
2018-06-27T07:14:22.294Z,21.39
2018-06-27T07:15:22.391Z,21.50
2018-06-27T07:16:22.495Z,21.51
2018-06-27T07:17:22.617Z,21.76
2018-06-27T07:18:22.719Z,21.72
2018-06-27T07:19:22.821Z,21.60
2018-06-27T07:20:22.911Z,21.71
2018-06-27T07:21:23.005Z,21.78
2018-06-27T07:22:23.140Z,21.72
2018-06-27T07:23:23.238Z,21.88
2018-06-27T07:24:23.346Z,21.92
2018-06-27T07:25:23.468Z,22.06
2018-06-27T07:26:23.566Z,22.23
2018-06-27T07:27:23.700Z,22.27
2018-06-27T07:28:23.840Z,22.02
2018-06-27T07:29:23.906Z,21.91
2018-06-27T07:30:24.023Z,21.78
2018-06-27T07:31:24.123Z,21.82
2018-06-27T07:32:24.241Z,21.83
2018-06-27T07:33:24.362Z,21.97
2018-06-27T07:34:24.461Z,22.22
2018-06-27T07:35:24.567Z,22.29
2018-06-27T07:36:24.675Z,22.35
2018-06-27T07:37:24.804Z,22.41
2018-06-27T07:38:24.896Z,22.56
2018-06-27T07:39:24.997Z,22.52
2018-06-27T07:40:25.141Z,22.46
2018-06-27T07:41:25.245Z,22.41
2018-06-27T07:42:25.349Z,22.54
2018-06-27T07:43:25.452Z,22.07
2018-06-27T07:44:25.606Z,22.25
2018-06-27T07:45:25.646Z,22.31
2018-06-27T07:46:25.745Z,22.32
2018-06-27T07:47:25.840Z,22.04
2018-06-27T07:48:25.935Z,21.72
2018-06-27T07:49:26.034Z,21.85
2018-06-27T07:50:26.139Z,22.01
2018-06-27T07:51:26.239Z,22.19
2018-06-27T07:52:26.339Z,22.29
2018-06-27T07:53:26.443Z,22.53
2018-06-27T07:54:26.548Z,22.64
2018-06-27T07:55:26.658Z,22.78
2018-06-27T07:56:26.765Z,22.71
2018-06-27T07:57:26.875Z,22.80
2018-06-27T07:58:26.987Z,22.84
2018-06-27T07:59:27.092Z,22.97
2018-06-27T08:00:27.197Z,23.15
2018-06-27T08:01:27.299Z,23.26
2018-06-27T08:02:27.409Z,23.39
2018-06-27T08:03:27.516Z,23.31
2018-06-27T08:04:27.630Z,23.45
2018-06-27T08:05:27.733Z,23.38
2018-06-27T08:06:27.854Z,23.24
2018-06-27T08:07:27.966Z,23.40
2018-06-27T08:08:28.062Z,23.50
2018-06-27T08:09:28.153Z,23.53
2018-06-27T08:10:28.259Z,23.64
2018-06-27T08:11:28.366Z,23.72
2018-06-27T08:12:28.522Z,23.85
2018-06-27T08:13:28.577Z,23.97
2018-06-27T08:14:28.673Z,23.79
2018-06-27T08:15:28.783Z,23.75
2018-06-27T08:16:28.882Z,23.47
2018-06-27T08:17:29.021Z,23.47
2018-06-27T08:18:29.107Z,23.38
2018-06-27T08:19:29.201Z,23.31
2018-06-27T08:20:29.322Z,23.14
2018-06-27T08:21:29.438Z,22.87
2018-06-27T08:22:29.556Z,22.64
2018-06-27T08:23:29.670Z,22.75
2018-06-27T08:24:29.769Z,23.02
2018-06-27T08:25:29.859Z,23.12
2018-06-27T08:26:29.967Z,23.26
2018-06-27T08:27:30.073Z,23.49
2018-06-27T08:28:30.199Z,23.67
2018-06-27T08:29:30.298Z,23.71
2018-06-27T08:30:30.410Z,23.90
2018-06-27T08:31:30.514Z,23.92
2018-06-27T08:32:30.627Z,24.14
2018-06-27T08:33:30.717Z,23.76
2018-06-27T08:34:30.815Z,23.68
2018-06-27T08:35:30.911Z,23.47
2018-06-27T08:36:31.035Z,23.49
2018-06-27T08:37:31.147Z,23.61
2018-06-27T08:38:31.249Z,22.93
2018-06-27T08:39:31.370Z,22.75
2018-06-27T08:40:31.459Z,22.82
2018-06-27T08:41:31.563Z,22.68
2018-06-27T08:42:31.657Z,22.62
2018-06-27T08:43:31.745Z,22.56
2018-06-27T08:44:31.890Z,22.60
2018-06-27T08:45:31.959Z,22.84
2018-06-27T08:46:32.056Z,22.82
2018-06-27T08:47:32.170Z,22.65
2018-06-27T08:48:32.272Z,22.74
2018-06-27T08:49:32.369Z,22.78
2018-06-27T08:50:32.458Z,23.01
2018-06-27T08:51:32.579Z,23.05
2018-06-27T08:52:32.672Z,23.07
2018-06-27T08:53:32.777Z,22.65
2018-06-27T08:54:32.889Z,22.82
2018-06-27T08:55:32.985Z,22.97
2018-06-27T08:56:33.090Z,23.01
2018-06-27T08:57:33.194Z,22.92
2018-06-27T08:58:33.296Z,23.05
2018-06-27T08:59:33.400Z,23.01
2018-06-27T09:00:33.501Z,22.78
2018-06-27T09:01:33.606Z,22.52
2018-06-27T09:02:33.709Z,22.75
2018-06-27T09:03:33.816Z,22.78
2018-06-27T09:04:33.939Z,22.94
2018-06-27T09:05:34.041Z,22.90
2018-06-27T09:06:34.144Z,22.87
2018-06-27T09:07:34.305Z,23.12
2018-06-27T09:08:34.348Z,23.17
2018-06-27T09:09:34.449Z,23.14
2018-06-27T09:10:34.547Z,23.42
2018-06-27T09:11:34.643Z,23.29
2018-06-27T09:12:34.741Z,23.08
2018-06-27T09:13:34.844Z,23.12
2018-06-27T09:14:34.946Z,23.43
2018-06-27T09:15:35.048Z,23.60
2018-06-27T09:16:35.156Z,23.68
2018-06-27T09:17:35.251Z,23.80
2018-06-27T09:18:35.427Z,23.60
2018-06-27T09:19:35.468Z,23.65
2018-06-27T09:20:35.572Z,23.76
2018-06-27T09:21:35.677Z,23.32
2018-06-27T09:22:35.781Z,23.46
2018-06-27T09:23:35.883Z,23.53
2018-06-27T09:24:35.986Z,23.58
2018-06-27T09:25:36.089Z,23.47
2018-06-27T09:26:36.196Z,23.11
2018-06-27T09:27:36.296Z,22.68
2018-06-27T09:28:36.402Z,22.78
2018-06-27T09:29:36.510Z,22.89
2018-06-27T09:30:36.613Z,22.89
2018-06-27T09:31:36.719Z,22.97
2018-06-27T09:32:36.824Z,22.86
2018-06-27T09:33:36.916Z,22.87
2018-06-27T09:34:37.016Z,22.99
2018-06-27T09:35:37.121Z,23.17
2018-06-27T09:36:37.223Z,23.45
2018-06-27T09:37:37.327Z,23.40
2018-06-27T09:38:37.429Z,22.80
2018-06-27T09:39:37.534Z,22.80
2018-06-27T09:40:37.764Z,22.97
2018-06-27T09:41:37.784Z,23.12
2018-06-27T09:42:37.889Z,23.40
2018-06-27T09:43:37.992Z,23.64
2018-06-27T09:44:38.094Z,23.53
2018-06-27T09:45:38.198Z,23.70
2018-06-27T09:46:38.301Z,23.71
2018-06-27T09:47:38.412Z,24.02
2018-06-27T09:48:38.514Z,24.34
2018-06-27T09:49:38.616Z,24.16
2018-06-27T09:50:38.723Z,24.16
2018-06-27T09:51:38.826Z,24.23
2018-06-27T09:52:38.930Z,24.07
2018-06-27T09:53:39.034Z,23.67
2018-06-27T09:54:39.137Z,23.70
2018-06-27T09:55:39.243Z,23.61
2018-06-27T09:56:39.371Z,23.65
2018-06-27T09:57:39.448Z,23.68
2018-06-27T09:58:39.552Z,23.90
2018-06-27T09:59:39.654Z,24.02
2018-06-27T10:00:39.759Z,23.77
2018-06-27T10:01:39.861Z,23.85
2018-06-27T10:02:39.959Z,23.95
2018-06-27T10:03:40.062Z,23.75
2018-06-27T10:04:40.164Z,23.92
2018-06-27T10:05:40.265Z,23.94
2018-06-27T10:06:40.367Z,23.90
2018-06-27T10:07:40.476Z,24.12
2018-06-27T10:08:40.576Z,24.32
2018-06-27T10:09:40.678Z,24.53
2018-06-27T10:10:40.784Z,24.77
2018-06-27T10:11:40.889Z,24.54
2018-06-27T10:12:40.995Z,24.69
2018-06-27T10:13:41.097Z,24.80
2018-06-27T10:14:41.202Z,24.67
2018-06-27T10:15:41.307Z,24.31
2018-06-27T10:16:41.400Z,24.20
2018-06-27T10:17:41.512Z,24.07
2018-06-27T10:18:41.617Z,23.80
2018-06-27T10:19:41.721Z,23.76
2018-06-27T10:20:41.828Z,23.80
2018-06-27T10:21:41.930Z,24.04
2018-06-27T10:22:42.085Z,24.24
2018-06-27T10:23:42.134Z,24.38
2018-06-27T10:24:42.237Z,24.52
2018-06-27T10:25:42.341Z,24.49
2018-06-27T10:26:42.449Z,24.68
2018-06-27T10:27:42.551Z,24.87
2018-06-27T10:28:42.654Z,24.77
2018-06-27T10:29:42.763Z,24.69
2018-06-27T10:30:42.897Z,24.52
2018-06-27T10:31:42.969Z,24.61
2018-06-27T10:32:43.071Z,24.53
2018-06-27T10:33:43.177Z,24.56
2018-06-27T10:34:43.280Z,24.32
2018-06-27T10:35:43.403Z,24.31
2018-06-27T10:36:43.490Z,24.19
2018-06-27T10:37:43.659Z,24.31
2018-06-27T10:38:43.726Z,24.50
2018-06-27T10:39:43.829Z,24.83
2018-06-27T10:40:43.939Z,24.80
2018-06-27T10:41:44.050Z,24.91
2018-06-27T10:42:44.150Z,24.52
2018-06-27T10:43:44.254Z,24.32
2018-06-27T10:44:44.363Z,24.37
2018-06-27T10:45:44.455Z,24.37
2018-06-27T10:46:44.553Z,24.60
2018-06-27T10:47:44.665Z,24.69
2018-06-27T10:48:44.771Z,24.88
2018-06-27T10:49:44.874Z,25.05
2018-06-27T10:50:44.978Z,25.16
2018-06-27T10:51:45.085Z,25.31
2018-06-27T10:52:45.193Z,25.44
2018-06-27T10:53:45.298Z,25.56
2018-06-27T10:54:45.399Z,25.61
2018-06-27T10:55:45.503Z,25.82
2018-06-27T10:56:45.610Z,25.97
2018-06-27T10:57:45.715Z,26.02
2018-06-27T10:58:45.819Z,26.20
2018-06-27T10:59:45.935Z,26.08
2018-06-27T11:00:46.043Z,26.29
2018-06-27T11:01:46.146Z,26.29
2018-06-27T11:02:46.252Z,26.29
2018-06-27T11:03:46.356Z,26.06
2018-06-27T11:04:46.460Z,26.32
2018-06-27T11:05:46.569Z,26.35
2018-06-27T11:06:46.671Z,26.24
2018-06-27T11:07:46.770Z,26.21
2018-06-27T11:08:46.874Z,26.25
2018-06-27T11:09:46.978Z,26.39
2018-06-27T11:10:47.082Z,26.31
2018-06-27T11:11:47.191Z,26.31
2018-06-27T11:12:47.297Z,26.04
2018-06-27T11:13:47.404Z,26.17
2018-06-27T11:14:47.508Z,26.06
2018-06-27T11:15:47.616Z,26.15
2018-06-27T11:16:47.723Z,26.28
2018-06-27T11:17:47.825Z,25.99
2018-06-27T11:18:47.930Z,25.99
2018-06-27T11:19:48.047Z,26.09
2018-06-27T11:20:48.150Z,26.20
2018-06-27T11:21:48.252Z,26.32
2018-06-27T11:22:48.360Z,26.36
2018-06-27T11:23:48.462Z,26.29
2018-06-27T11:24:48.563Z,26.21
2018-06-27T11:25:48.663Z,26.09
2018-06-27T11:26:48.806Z,26.12
2018-06-27T11:27:48.866Z,26.17
2018-06-27T11:28:48.976Z,26.29
2018-06-27T11:29:49.084Z,26.42
2018-06-27T11:30:49.180Z,26.46
2018-06-27T11:31:49.283Z,26.59
2018-06-27T11:32:49.476Z,26.81
2018-06-27T11:33:49.493Z,26.92
2018-06-27T11:34:49.589Z,27.05
2018-06-27T11:35:49.690Z,27.02
2018-06-27T11:36:49.809Z,26.99
2018-06-27T11:37:49.919Z,26.74
2018-06-27T11:38:50.107Z,26.61
2018-06-27T11:39:50.137Z,26.50
2018-06-27T11:40:50.238Z,26.68
2018-06-27T11:41:50.343Z,26.69
2018-06-27T11:42:50.446Z,26.83
2018-06-27T11:43:50.627Z,26.58
2018-06-27T11:44:50.621Z,26.54
2018-06-27T11:45:50.725Z,26.74
2018-06-27T11:46:50.851Z,26.87
2018-06-27T11:47:50.960Z,26.91
2018-06-27T11:48:51.067Z,26.72
2018-06-27T11:49:51.169Z,26.73
2018-06-27T11:50:51.301Z,26.61
2018-06-27T11:51:51.424Z,26.52
2018-06-27T11:52:51.539Z,26.59
2018-06-27T11:53:51.661Z,26.55
2018-06-27T11:54:51.772Z,26.61
2018-06-27T11:55:51.876Z,26.50
2018-06-27T11:56:51.981Z,26.20
2018-06-27T11:57:52.092Z,26.04
2018-06-27T11:58:52.197Z,26.04
2018-06-27T11:59:52.316Z,26.04
2018-06-27T12:00:52.414Z,26.18
2018-06-27T12:01:52.525Z,26.04
2018-06-27T12:02:52.619Z,25.47
2018-06-27T12:03:52.721Z,25.39
2018-06-27T12:04:52.828Z,25.42
2018-06-27T12:05:52.949Z,25.64
2018-06-27T12:06:53.041Z,25.62
2018-06-27T12:07:53.146Z,25.80
2018-06-27T12:08:53.260Z,25.82
2018-06-27T12:09:53.352Z,25.84
2018-06-27T12:10:53.458Z,25.77
2018-06-27T12:11:53.547Z,25.98
2018-06-27T12:12:53.643Z,26.02
2018-06-27T12:13:53.754Z,26.25
2018-06-27T12:14:53.884Z,26.36
2018-06-27T12:15:53.985Z,26.36
2018-06-27T12:16:54.102Z,26.49
2018-06-27T12:17:54.180Z,26.43
2018-06-27T12:18:54.306Z,26.35
2018-06-27T12:19:54.408Z,26.06
2018-06-27T12:20:54.512Z,25.83
2018-06-27T12:21:54.632Z,25.72
2018-06-27T12:22:54.749Z,25.79
2018-06-27T12:23:54.855Z,25.80
2018-06-27T12:24:54.949Z,25.86
2018-06-27T12:25:55.055Z,26.02
2018-06-27T12:26:55.174Z,26.02
2018-06-27T12:27:55.271Z,26.20
2018-06-27T12:28:55.381Z,26.24
2018-06-27T12:29:55.481Z,26.20
2018-06-27T12:30:55.606Z,26.31
2018-06-27T12:31:55.698Z,26.54
2018-06-27T12:32:55.808Z,26.73
2018-06-27T12:33:55.929Z,26.91
2018-06-27T12:34:56.024Z,27.05
2018-06-27T12:35:56.132Z,26.92
2018-06-27T12:36:56.238Z,26.95
2018-06-27T12:37:56.336Z,26.68
2018-06-27T12:38:56.438Z,26.72
2018-06-27T12:39:56.543Z,26.57
2018-06-27T12:40:56.653Z,26.31
2018-06-27T12:41:56.756Z,26.21
2018-06-27T12:42:56.857Z,26.35
2018-06-27T12:43:56.964Z,26.54
2018-06-27T12:44:57.064Z,26.67
2018-06-27T12:45:57.174Z,26.31
2018-06-27T12:46:57.282Z,26.35
2018-06-27T12:47:57.391Z,26.31
2018-06-27T12:48:57.494Z,26.01
2018-06-27T12:49:57.696Z,26.12
2018-06-27T12:50:57.721Z,26.22
2018-06-27T12:51:57.849Z,26.29
2018-06-27T12:52:57.945Z,26.57
2018-06-27T12:53:58.072Z,26.76